Terminal Aerodrome Forecast
Issued by NWS Wilmington, OH

Current Version | Previous Version | Graphics & Text | Print | Product List | Glossary On
Versions: 1 2 3 4 5 6 7 8 9 10 11 12 13 14 15 16 17 18 19 20 21 22 23 24 25 26 27 28 29 30 31 32
000
FTUS41 KILN 291900 AAA
TAFILN
TAF AMD
KILN 291915Z 2919/3018 24016G25KT P6SM OVC028
     FM292000 25016G26KT 4SM BR VCSH OVC018
     FM292200 26017G27KT P6SM OVC009
     FM300100 29015G23KT P6SM OVC012
     FM301000 31014G20KT P6SM OVC022
     FM301500 33012G20KT P6SM SCT025=

USA.gov is the U.S. government's official web portal to all federal, state and local government web resources and services.